Terminal Aerodrome Forecast
Issued by NWS

Home | Current Version | Previous Version | Text Only | Print | Product List | Glossary On
Versions: 1 2 3 4 5 6 7 8 9 10 11 12 13 14 15 16 17 18 19
355
FTUS43 KAPX 200930 AAA
TAFAPN
TAF AMD
KAPN 200930Z 2010/2106 08010KT 5SM -FZRA BR OVC005
     FM201200 08008KT 2SM BR OVC004
     FM201500 12006KT 3/4SM -RA BR OVC010 WS020/22035KT
     FM202000 19006KT 3/4SM -RA BR OVC010 WS020/22035KT=

USA.gov is the U.S. government's official web portal to all federal, state and local government web resources and services.